sensor_id;sensor_type;location;lat;lon;timestamp;temperature;humidity
43087;DHT22;28708;52.224;6.924;2023-10-09T01:34:13;14.10;99.90
43087;DHT22;28708;52.224;6.924;2023-10-09T01:36:40;14.10;99.90
43087;DHT22;28708;52.224;6.924;2023-10-09T01:39:07;14.10;99.90
43087;DHT22;28708;52.224;6.924;2023-10-09T01:41:52;14.10;99.90
43087;DHT22;28708;52.224;6.924;2023-10-09T01:44:28;14.20;99.90
43087;DHT22;28708;52.224;6.924;2023-10-09T01:46:56;14.20;99.90
43087;DHT22;28708;52.224;6.924;2023-10-09T01:49:24;14.20;99.90
43087;DHT22;28708;52.224;6.924;2023-10-09T01:51:57;14.20;99.90
43087;DHT22;28708;52.224;6.924;2023-10-09T01:54:29;14.20;99.90
43087;DHT22;28708;52.224;6.924;2023-10-09T01:57:05;14.20;99.90
43087;DHT22;28708;52.224;6.924;2023-10-09T01:59:39;14.30;99.90
43087;DHT22;28708;52.224;6.924;2023-10-09T02:02:13;14.30;99.90
43087;DHT22;28708;52.224;6.924;2023-10-09T02:04:42;14.30;99.90
43087;DHT22;28708;52.224;6.924;2023-10-09T02:07:07;14.30;99.90
43087;DHT22;28708;52.224;6.924;2023-10-09T02:09:35;14.30;99.90
43087;DHT22;28708;52.224;6.924;2023-10-09T02:12:10;14.30;99.90
43087;DHT22;28708;52.224;6.924;2023-10-09T02:14:35;14.30;99.90
43087;DHT22;28708;52.224;6.924;2023-10-09T02:17:07;14.30;99.90
43087;DHT22;28708;52.224;6.924;2023-10-09T02:19:46;14.30;99.90
43087;DHT22;28708;52.224;6.924;2023-10-09T02:22:16;14.40;99.90
43087;DHT22;28708;52.224;6.924;2023-10-09T02:24:44;14.30;99.90
43087;DHT22;28708;52.224;6.924;2023-10-09T02:27:30;14.40;99.90
43087;DHT22;28708;52.224;6.924;2023-10-09T02:30:14;14.40;99.90
43087;DHT22;28708;52.224;6.924;2023-10-09T02:32:55;14.40;99.90
43087;DHT22;28708;52.224;6.924;2023-10-09T02:35:34;14.40;99.90
43087;DHT22;28708;52.224;6.924;2023-10-09T02:38:05;14.50;99.90
43087;DHT22;28708;52.224;6.924;2023-10-09T02:40:35;14.50;99.90
43087;DHT22;28708;52.224;6.924;2023-10-09T02:43:33;14.60;99.90
43087;DHT22;28708;52.224;6.924;2023-10-09T02:46:06;14.60;99.90
43087;DHT22;28708;52.224;6.924;2023-10-09T02:48:48;14.70;99.90
43087;DHT22;28708;52.224;6.924;2023-10-09T02:51:21;14.70;99.90
43087;DHT22;28708;52.224;6.924;2023-10-09T02:54:00;14.70;99.90
43087;DHT22;28708;52.224;6.924;2023-10-09T02:56:34;14.80;99.90
43087;DHT22;28708;52.224;6.924;2023-10-09T02:59:05;14.80;99.90
43087;DHT22;28708;52.224;6.924;2023-10-09T03:01:37;14.80;99.90
43087;DHT22;28708;52.224;6.924;2023-10-09T03:04:06;14.80;99.90
43087;DHT22;28708;52.224;6.924;2023-10-09T03:06:33;14.80;99.90
43087;DHT22;28708;52.224;6.924;2023-10-09T03:09:03;14.80;99.90
43087;DHT22;28708;52.224;6.924;2023-10-09T03:11:49;14.80;99.90
43087;DHT22;28708;52.224;6.924;2023-10-09T03:14:22;14.90;99.90
43087;DHT22;28708;52.224;6.924;2023-10-09T03:16:52;14.80;99.90
43087;DHT22;28708;52.224;6.924;2023-10-09T03:19:18;14.90;99.90
43087;DHT22;28708;52.224;6.924;2023-10-09T03:21:43;14.90;99.90
43087;DHT22;28708;52.224;6.924;2023-10-09T03:24:09;14.90;99.90
43087;DHT22;28708;52.224;6.924;2023-10-09T03:26:37;14.90;99.90
43087;DHT22;28708;52.224;6.924;2023-10-09T03:29:03;14.90;99.90
43087;DHT22;28708;52.224;6.924;2023-10-09T03:31:32;14.90;99.90
43087;DHT22;28708;52.224;6.924;2023-10-09T03:33:59;14.90;99.90
43087;DHT22;28708;52.224;6.924;2023-10-09T03:36:25;14.90;99.90
43087;DHT22;28708;52.224;6.924;2023-10-09T03:38:54;14.90;99.90
43087;DHT22;28708;52.224;6.924;2023-10-09T03:41:21;14.90;99.90
43087;DHT22;28708;52.224;6.924;2023-10-09T03:43:47;14.90;99.90
43087;DHT22;28708;52.224;6.924;2023-10-09T03:46:12;14.90;99.90
43087;DHT22;28708;52.224;6.924;2023-10-09T03:48:59;14.90;99.90
43087;DHT22;28708;52.224;6.924;2023-10-09T03:51:28;15.00;99.90
43087;DHT22;28708;52.224;6.924;2023-10-09T03:53:55;15.10;99.90
43087;DHT22;28708;52.224;6.924;2023-10-09T03:56:21;15.10;99.90
43087;DHT22;28708;52.224;6.924;2023-10-09T03:58:48;15.10;99.90
43087;DHT22;28708;52.224;6.924;2023-10-09T04:01:19;15.20;99.90
43087;DHT22;28708;52.224;6.924;2023-10-09T04:03:53;15.20;99.90
43087;DHT22;28708;52.224;6.924;2023-10-09T04:06:26;15.10;99.90
43087;DHT22;28708;52.224;6.924;2023-10-09T04:09:06;15.10;99.90
43087;DHT22;28708;52.224;6.924;2023-10-09T04:11:58;15.10;99.90
43087;DHT22;28708;52.224;6.924;2023-10-09T04:14:39;15.10;99.90
43087;DHT22;28708;52.224;6.924;2023-10-09T04:17:15;15.20;99.90
43087;DHT22;28708;52.224;6.924;2023-10-09T04:19:47;15.30;99.90
43087;DHT22;28708;52.224;6.924;2023-10-09T04:22:31;15.20;99.90
43087;DHT22;28708;52.224;6.924;2023-10-09T04:25:05;15.20;99.90
43087;DHT22;28708;52.224;6.924;2023-10-09T04:27:33;15.20;99.90
43087;DHT22;28708;52.224;6.924;2023-10-09T04:30:02;15.30;99.90
43087;DHT22;28708;52.224;6.924;2023-10-09T04:32:28;15.40;99.90
43087;DHT22;28708;52.224;6.924;2023-10-09T04:34:54;15.50;99.90
43087;DHT22;28708;52.224;6.924;2023-10-09T04:37:38;15.50;99.90
43087;DHT22;28708;52.224;6.924;2023-10-09T04:40:05;15.50;99.90
43087;DHT22;28708;52.224;6.924;2023-10-09T04:42:38;15.50;99.90
43087;DHT22;28708;52.224;6.924;2023-10-09T04:45:05;15.50;99.90
43087;DHT22;28708;52.224;6.924;2023-10-09T04:47:37;15.50;99.90
43087;DHT22;28708;52.224;6.924;2023-10-09T04:50:15;15.50;99.90
43087;DHT22;28708;52.224;6.924;2023-10-09T04:52:44;15.50;99.90
43087;DHT22;28708;52.224;6.924;2023-10-09T04:55:10;15.40;99.90
43087;DHT22;28708;52.224;6.924;2023-10-09T04:57:37;15.40;99.90
43087;DHT22;28708;52.224;6.924;2023-10-09T05:00:05;15.30;99.90
43087;DHT22;28708;52.224;6.924;2023-10-09T05:02:50;15.30;99.90
43087;DHT22;28708;52.224;6.924;2023-10-09T05:05:23;15.30;99.90
43087;DHT22;28708;52.224;6.924;2023-10-09T05:13:34;15.30;99.90
43087;DHT22;28708;52.224;6.924;2023-10-09T05:16:16;15.30;99.90
43087;DHT22;28708;52.224;6.924;2023-10-09T05:18:52;15.30;99.90
43087;DHT22;28708;52.224;6.924;2023-10-09T05:21:35;15.30;99.90
43087;DHT22;28708;52.224;6.924;2023-10-09T05:24:10;15.30;99.90
43087;DHT22;28708;52.224;6.924;2023-10-09T05:26:44;15.30;99.90
43087;DHT22;28708;52.224;6.924;2023-10-09T05:29:10;15.30;99.90
43087;DHT22;28708;52.224;6.924;2023-10-09T05:31:46;15.20;99.90
43087;DHT22;28708;52.224;6.924;2023-10-09T05:34:31;15.30;99.90
43087;DHT22;28708;52.224;6.924;2023-10-09T05:37:04;15.20;99.90
43087;DHT22;28708;52.224;6.924;2023-10-09T05:39:51;15.20;99.90
43087;DHT22;28708;52.224;6.924;2023-10-09T05:42:34;15.20;99.90
43087;DHT22;28708;52.224;6.924;2023-10-09T05:45:03;15.30;99.90
43087;DHT22;28708;52.224;6.924;2023-10-09T05:47:49;15.30;99.90
43087;DHT22;28708;52.224;6.924;2023-10-09T05:50:30;15.30;99.90
43087;DHT22;28708;52.224;6.924;2023-10-09T05:52:59;15.30;99.90
43087;DHT22;28708;52.224;6.924;2023-10-09T05:55:29;15.30;99.90
43087;DHT22;28708;52.224;6.924;2023-10-09T05:58:14;15.30;99.90
43087;DHT22;28708;52.224;6.924;2023-10-09T06:01:05;15.30;99.90
43087;DHT22;28708;52.224;6.924;2023-10-09T06:03:51;15.30;99.90
43087;DHT22;28708;52.224;6.924;2023-10-09T06:06:23;15.30;99.90
43087;DHT22;28708;52.224;6.924;2023-10-09T06:09:21;15.30;99.90
43087;DHT22;28708;52.224;6.924;2023-10-09T06:11:48;15.30;99.90
43087;DHT22;28708;52.224;6.924;2023-10-09T06:14:13;15.30;99.90
43087;DHT22;28708;52.224;6.924;2023-10-09T06:16:41;15.30;99.90
43087;DHT22;28708;52.224;6.924;2023-10-09T06:19:12;15.30;99.90
43087;DHT22;28708;52.224;6.924;2023-10-09T06:21:38;15.30;99.90
43087;DHT22;28708;52.224;6.924;2023-10-09T06:24:23;15.30;99.90
43087;DHT22;28708;52.224;6.924;2023-10-09T06:26:49;15.30;99.90
43087;DHT22;28708;52.224;6.924;2023-10-09T06:29:39;15.30;99.90
43087;DHT22;28708;52.224;6.924;2023-10-09T06:32:14;15.30;99.90
43087;DHT22;28708;52.224;6.924;2023-10-09T06:34:58;15.40;99.90
43087;DHT22;28708;52.224;6.924;2023-10-09T06:37:47;15.40;99.90
43087;DHT22;28708;52.224;6.924;2023-10-09T06:40:35;15.40;99.90
43087;DHT22;28708;52.224;6.924;2023-10-09T06:43:20;15.40;99.90
43087;DHT22;28708;52.224;6.924;2023-10-09T06:48:27;15.50;99.90
43087;DHT22;28708;52.224;6.924;2023-10-09T06:51:09;15.50;99.90
43087;DHT22;28708;52.224;6.924;2023-10-09T06:53:53;15.50;99.90
43087;DHT22;28708;52.224;6.924;2023-10-09T06:56:29;15.60;99.90
43087;DHT22;28708;52.224;6.924;2023-10-09T06:59:05;15.60;99.90
43087;DHT22;28708;52.224;6.924;2023-10-09T07:01:50;15.60;99.90
43087;DHT22;28708;52.224;6.924;2023-10-09T07:04:37;15.50;99.90
43087;DHT22;28708;52.224;6.924;2023-10-09T07:07:02;15.60;99.90
43087;DHT22;28708;52.224;6.924;2023-10-09T07:09:35;15.60;99.90
43087;DHT22;28708;52.224;6.924;2023-10-09T07:12:32;15.60;99.90
43087;DHT22;28708;52.224;6.924;2023-10-09T07:15:00;15.60;99.90
43087;DHT22;28708;52.224;6.924;2023-10-09T07:17:50;15.60;99.90
43087;DHT22;28708;52.224;6.924;2023-10-09T07:20:17;15.60;99.90
43087;DHT22;28708;52.224;6.924;2023-10-09T07:23:03;15.70;99.90
43087;DHT22;28708;52.224;6.924;2023-10-09T07:25:42;15.70;99.90
43087;DHT22;28708;52.224;6.924;2023-10-09T07:28:20;15.60;99.90
43087;DHT22;28708;52.224;6.924;2023-10-09T07:31:16;15.60;99.90
43087;DHT22;28708;52.224;6.924;2023-10-09T07:33:50;15.60;99.90
43087;DHT22;28708;52.224;6.924;2023-10-09T07:36:22;15.60;99.90
43087;DHT22;28708;52.224;6.924;2023-10-09T07:39:02;15.60;99.90
43087;DHT22;28708;52.224;6.924;2023-10-09T07:41:31;15.60;99.90
43087;DHT22;28708;52.224;6.924;2023-10-09T07:43:57;15.60;99.90
43087;DHT22;28708;52.224;6.924;2023-10-09T07:46:23;15.60;99.90
43087;DHT22;28708;52.224;6.924;2023-10-09T07:49:05;15.60;99.90
43087;DHT22;28708;52.224;6.924;2023-10-09T07:51:50;15.60;99.90
43087;DHT22;28708;52.224;6.924;2023-10-09T07:54:18;15.60;99.90
43087;DHT22;28708;52.224;6.924;2023-10-09T07:56:58;15.60;99.90
43087;DHT22;28708;52.224;6.924;2023-10-09T07:59:42;15.60;99.90
43087;DHT22;28708;52.224;6.924;2023-10-09T08:02:23;15.60;99.90
43087;DHT22;28708;52.224;6.924;2023-10-09T08:04:59;15.60;99.90
43087;DHT22;28708;52.224;6.924;2023-10-09T08:07:33;15.60;99.90
43087;DHT22;28708;52.224;6.924;2023-10-09T08:10:04;15.60;99.90
43087;DHT22;28708;52.224;6.924;2023-10-09T08:12:43;15.70;99.90
43087;DHT22;28708;52.224;6.924;2023-10-09T08:15:14;15.70;99.90
43087;DHT22;28708;52.224;6.924;2023-10-09T08:17:47;15.70;99.90
43087;DHT22;28708;52.224;6.924;2023-10-09T08:20:36;15.70;99.90
43087;DHT22;28708;52.224;6.924;2023-10-09T08:23:21;15.80;99.90
43087;DHT22;28708;52.224;6.924;2023-10-09T08:26:10;15.70;99.90
43087;DHT22;28708;52.224;6.924;2023-10-09T08:28:42;15.70;99.90
43087;DHT22;28708;52.224;6.924;2023-10-09T08:31:13;15.70;99.90
43087;DHT22;28708;52.224;6.924;2023-10-09T08:33:46;15.70;99.90
43087;DHT22;28708;52.224;6.924;2023-10-09T08:36:23;15.80;99.90
43087;DHT22;28708;52.224;6.924;2023-10-09T08:38:56;15.80;99.90
43087;DHT22;28708;52.224;6.924;2023-10-09T08:41:39;15.80;99.90
43087;DHT22;28708;52.224;6.924;2023-10-09T08:44:07;15.90;99.90
43087;DHT22;28708;52.224;6.924;2023-10-09T08:46:33;15.90;99.90
43087;DHT22;28708;52.224;6.924;2023-10-09T08:48:59;15.90;99.90
43087;DHT22;28708;52.224;6.924;2023-10-09T08:51:26;16.00;99.90
43087;DHT22;28708;52.224;6.924;2023-10-09T08:53:53;16.00;99.90
43087;DHT22;28708;52.224;6.924;2023-10-09T08:56:20;16.00;99.90
43087;DHT22;28708;52.224;6.924;2023-10-09T08:58:54;16.00;99.90
43087;DHT22;28708;52.224;6.924;2023-10-09T09:01:20;16.00;99.90
43087;DHT22;28708;52.224;6.924;2023-10-09T09:03:48;16.10;99.90
43087;DHT22;28708;52.224;6.924;2023-10-09T09:06:19;16.20;99.90
43087;DHT22;28708;52.224;6.924;2023-10-09T09:08:45;16.20;99.90
43087;DHT22;28708;52.224;6.924;2023-10-09T09:13:43;16.30;99.90
43087;DHT22;28708;52.224;6.924;2023-10-09T09:16:23;16.30;99.90
43087;DHT22;28708;52.224;6.924;2023-10-09T09:19:01;16.40;99.90
43087;DHT22;28708;52.224;6.924;2023-10-09T09:21:35;16.40;99.90
43087;DHT22;28708;52.224;6.924;2023-10-09T09:24:06;16.50;99.90
43087;DHT22;28708;52.224;6.924;2023-10-09T09:27:10;16.50;99.90
43087;DHT22;28708;52.224;6.924;2023-10-09T09:32:08;16.50;99.90
43087;DHT22;28708;52.224;6.924;2023-10-09T09:34:53;16.50;99.90
43087;DHT22;28708;52.224;6.924;2023-10-09T09:37:33;16.50;99.90
43087;DHT22;28708;52.224;6.924;2023-10-09T09:40:16;16.50;99.90
43087;DHT22;28708;52.224;6.924;2023-10-09T09:42:58;16.50;99.90
43087;DHT22;28708;52.224;6.924;2023-10-09T09:45:35;16.60;99.90
43087;DHT22;28708;52.224;6.924;2023-10-09T09:48:05;16.60;99.90
43087;DHT22;28708;52.224;6.924;2023-10-09T09:50:41;16.60;99.90
43087;DHT22;28708;52.224;6.924;2023-10-09T09:53:14;16.60;99.90
43087;DHT22;28708;52.224;6.924;2023-10-09T09:55:53;16.60;99.90
43087;DHT22;28708;52.224;6.924;2023-10-09T09:58:27;16.70;99.90
43087;DHT22;28708;52.224;6.924;2023-10-09T10:01:09;16.80;99.90
43087;DHT22;28708;52.224;6.924;2023-10-09T10:03:49;16.80;99.90
43087;DHT22;28708;52.224;6.924;2023-10-09T10:06:19;16.80;99.90
43087;DHT22;28708;52.224;6.924;2023-10-09T10:08:47;16.90;99.90
43087;DHT22;28708;52.224;6.924;2023-10-09T10:11:42;16.90;99.90
43087;DHT22;28708;52.224;6.924;2023-10-09T10:14:10;17.00;99.90
43087;DHT22;28708;52.224;6.924;2023-10-09T10:16:59;17.00;99.90
43087;DHT22;28708;52.224;6.924;2023-10-09T10:22:30;17.00;99.90
43087;DHT22;28708;52.224;6.924;2023-10-09T10:24:56;17.20;99.90
43087;DHT22;28708;52.224;6.924;2023-10-09T10:27:28;17.30;99.90
43087;DHT22;28708;52.224;6.924;2023-10-09T10:35:18;17.30;99.90
43087;DHT22;28708;52.224;6.924;2023-10-09T10:37:46;17.20;99.90
43087;DHT22;28708;52.224;6.924;2023-10-09T10:40:28;17.20;99.90
43087;DHT22;28708;52.224;6.924;2023-10-09T10:43:04;17.30;99.90
43087;DHT22;28708;52.224;6.924;2023-10-09T10:45:39;17.40;99.90
43087;DHT22;28708;52.224;6.924;2023-10-09T10:48:11;17.40;99.90
43087;DHT22;28708;52.224;6.924;2023-10-09T10:51:03;17.40;99.90
43087;DHT22;28708;52.224;6.924;2023-10-09T10:53:29;17.50;99.90
43087;DHT22;28708;52.224;6.924;2023-10-09T10:56:03;17.50;99.90
43087;DHT22;28708;52.224;6.924;2023-10-09T10:58:42;17.50;99.90
43087;DHT22;28708;52.224;6.924;2023-10-09T11:01:34;17.50;99.90
43087;DHT22;28708;52.224;6.924;2023-10-09T11:04:24;17.50;99.90
43087;DHT22;28708;52.224;6.924;2023-10-09T11:06:54;17.50;99.90
43087;DHT22;28708;52.224;6.924;2023-10-09T11:09:45;17.50;99.90
43087;DHT22;28708;52.224;6.924;2023-10-09T11:15:14;17.60;99.90
43087;DHT22;28708;52.224;6.924;2023-10-09T11:20:24;17.60;99.90
43087;DHT22;28708;52.224;6.924;2023-10-09T11:22:52;17.60;99.90
43087;DHT22;28708;52.224;6.924;2023-10-09T11:25:41;17.60;99.90
43087;DHT22;28708;52.224;6.924;2023-10-09T11:28:24;17.70;99.90
43087;DHT22;28708;52.224;6.924;2023-10-09T11:31:05;17.70;99.90
43087;DHT22;28708;52.224;6.924;2023-10-09T11:33:43;17.70;99.90
43087;DHT22;28708;52.224;6.924;2023-10-09T11:36:08;17.70;99.90
43087;DHT22;28708;52.224;6.924;2023-10-09T11:38:38;17.70;99.90
43087;DHT22;28708;52.224;6.924;2023-10-09T11:41:16;17.70;99.90
43087;DHT22;28708;52.224;6.924;2023-10-09T11:43:49;17.80;99.90
43087;DHT22;28708;52.224;6.924;2023-10-09T11:46:24;17.90;99.90
43087;DHT22;28708;52.224;6.924;2023-10-09T11:49:25;17.90;99.90
43087;DHT22;28708;52.224;6.924;2023-10-09T11:52:10;17.90;99.90
43087;DHT22;28708;52.224;6.924;2023-10-09T11:54:38;18.00;99.90
43087;DHT22;28708;52.224;6.924;2023-10-09T11:57:04;18.00;99.90
43087;DHT22;28708;52.224;6.924;2023-10-09T11:59:31;18.00;99.90
43087;DHT22;28708;52.224;6.924;2023-10-09T12:02:09;18.10;99.90
43087;DHT22;28708;52.224;6.924;2023-10-09T12:04:41;18.10;99.90
43087;DHT22;28708;52.224;6.924;2023-10-09T12:07:09;18.20;99.90
43087;DHT22;28708;52.224;6.924;2023-10-09T12:09:39;18.30;99.90
43087;DHT22;28708;52.224;6.924;2023-10-09T12:12:06;18.40;99.90
43087;DHT22;28708;52.224;6.924;2023-10-09T12:14:35;18.50;99.90
43087;DHT22;28708;52.224;6.924;2023-10-09T12:17:04;18.50;99.90
43087;DHT22;28708;52.224;6.924;2023-10-09T12:19:37;18.40;99.90
43087;DHT22;28708;52.224;6.924;2023-10-09T12:22:04;18.40;99.90
43087;DHT22;28708;52.224;6.924;2023-10-09T12:24:31;18.40;99.90
43087;DHT22;28708;52.224;6.924;2023-10-09T12:26:59;18.40;99.90
43087;DHT22;28708;52.224;6.924;2023-10-09T12:29:25;18.30;99.90
43087;DHT22;28708;52.224;6.924;2023-10-09T12:31:56;18.30;99.90
43087;DHT22;28708;52.224;6.924;2023-10-09T12:34:25;18.20;99.90
43087;DHT22;28708;52.224;6.924;2023-10-09T12:36:54;18.10;99.90
43087;DHT22;28708;52.224;6.924;2023-10-09T12:39:23;18.20;99.90
43087;DHT22;28708;52.224;6.924;2023-10-09T12:41:49;18.20;99.90
43087;DHT22;28708;52.224;6.924;2023-10-09T12:44:19;18.10;99.90
43087;DHT22;28708;52.224;6.924;2023-10-09T12:46:47;18.10;99.90
43087;DHT22;28708;52.224;6.924;2023-10-09T12:49:21;18.10;99.90
43087;DHT22;28708;52.224;6.924;2023-10-09T12:51:52;18.10;99.90
43087;DHT22;28708;52.224;6.924;2023-10-09T12:54:21;18.00;99.90
43087;DHT22;28708;52.224;6.924;2023-10-09T12:56:52;18.00;99.90
43087;DHT22;28708;52.224;6.924;2023-10-09T12:59:18;17.90;99.90
43087;DHT22;28708;52.224;6.924;2023-10-09T13:01:46;17.90;99.90
43087;DHT22;28708;52.224;6.924;2023-10-09T13:04:17;17.90;99.90
43087;DHT22;28708;52.224;6.924;2023-10-09T13:06:44;17.90;99.90
43087;DHT22;28708;52.224;6.924;2023-10-09T13:09:11;18.00;99.90
43087;DHT22;28708;52.224;6.924;2023-10-09T13:11:36;17.90;99.90
43087;DHT22;28708;52.224;6.924;2023-10-09T13:14:03;17.90;99.90
43087;DHT22;28708;52.224;6.924;2023-10-09T13:16:37;18.00;99.90
43087;DHT22;28708;52.224;6.924;2023-10-09T13:19:03;18.00;99.90
43087;DHT22;28708;52.224;6.924;2023-10-09T13:21:35;18.10;99.90
43087;DHT22;28708;52.224;6.924;2023-10-09T13:24:06;18.20;99.90
43087;DHT22;28708;52.224;6.924;2023-10-09T13:26:42;18.30;99.90
43087;DHT22;28708;52.224;6.924;2023-10-09T13:29:10;18.40;99.90
43087;DHT22;28708;52.224;6.924;2023-10-09T13:31:38;18.40;99.90
43087;DHT22;28708;52.224;6.924;2023-10-09T13:34:12;18.50;99.90
43087;DHT22;28708;52.224;6.924;2023-10-09T13:36:41;18.50;99.90
43087;DHT22;28708;52.224;6.924;2023-10-09T13:39:27;18.80;99.90
43087;DHT22;28708;52.224;6.924;2023-10-09T13:41:57;18.90;99.90
43087;DHT22;28708;52.224;6.924;2023-10-09T13:44:30;19.10;99.90
43087;DHT22;28708;52.224;6.924;2023-10-09T13:46:57;19.20;99.90
43087;DHT22;28708;52.224;6.924;2023-10-09T13:49:24;19.20;99.90
43087;DHT22;28708;52.224;6.924;2023-10-09T13:51:56;19.10;99.90
43087;DHT22;28708;52.224;6.924;2023-10-09T13:54:23;18.90;99.90
43087;DHT22;28708;52.224;6.924;2023-10-09T13:57:00;18.90;99.90
43087;DHT22;28708;52.224;6.924;2023-10-09T13:59:25;18.90;99.90
43087;DHT22;28708;52.224;6.924;2023-10-09T14:01:52;18.80;99.90
43087;DHT22;28708;52.224;6.924;2023-10-09T14:04:21;18.80;99.90
43087;DHT22;28708;52.224;6.924;2023-10-09T14:06:49;18.70;99.90
43087;DHT22;28708;52.224;6.924;2023-10-09T14:09:23;18.70;99.90
43087;DHT22;28708;52.224;6.924;2023-10-09T14:12:04;18.60;99.90
43087;DHT22;28708;52.224;6.924;2023-10-09T14:14:38;18.60;99.90
43087;DHT22;28708;52.224;6.924;2023-10-09T14:17:07;18.70;99.90
43087;DHT22;28708;52.224;6.924;2023-10-09T14:19:40;18.70;99.90
43087;DHT22;28708;52.224;6.924;2023-10-09T14:22:07;18.60;99.90
43087;DHT22;28708;52.224;6.924;2023-10-09T14:24:33;18.70;99.90
43087;DHT22;28708;52.224;6.924;2023-10-09T14:27:01;18.60;99.90
43087;DHT22;28708;52.224;6.924;2023-10-09T14:29:31;18.60;99.90
43087;DHT22;28708;52.224;6.924;2023-10-09T14:31:58;18.70;99.90
43087;DHT22;28708;52.224;6.924;2023-10-09T14:34:27;18.60;99.90
43087;DHT22;28708;52.224;6.924;2023-10-09T14:37:01;18.60;99.90
43087;DHT22;28708;52.224;6.924;2023-10-09T14:39:27;18.60;99.90
43087;DHT22;28708;52.224;6.924;2023-10-09T14:41:53;18.50;99.90
43087;DHT22;28708;52.224;6.924;2023-10-09T14:44:25;18.50;99.90
43087;DHT22;28708;52.224;6.924;2023-10-09T14:46:53;18.40;99.90
43087;DHT22;28708;52.224;6.924;2023-10-09T14:49:20;18.40;99.90
43087;DHT22;28708;52.224;6.924;2023-10-09T14:51:47;18.40;99.90
43087;DHT22;28708;52.224;6.924;2023-10-09T14:54:13;18.40;99.90
43087;DHT22;28708;52.224;6.924;2023-10-09T14:56:44;18.40;99.90
43087;DHT22;28708;52.224;6.924;2023-10-09T14:59:11;18.40;99.90
43087;DHT22;28708;52.224;6.924;2023-10-09T15:01:37;18.30;99.90
43087;DHT22;28708;52.224;6.924;2023-10-09T15:04:03;18.30;99.90
43087;DHT22;28708;52.224;6.924;2023-10-09T15:06:29;18.30;99.90
43087;DHT22;28708;52.224;6.924;2023-10-09T15:08:56;18.30;99.90
43087;DHT22;28708;52.224;6.924;2023-10-09T15:11:26;18.40;99.90
43087;DHT22;28708;52.224;6.924;2023-10-09T15:13:56;18.30;99.90
43087;DHT22;28708;52.224;6.924;2023-10-09T15:16:26;18.40;99.90
43087;DHT22;28708;52.224;6.924;2023-10-09T15:18:56;18.40;99.90
43087;DHT22;28708;52.224;6.924;2023-10-09T15:21:29;18.30;99.90
43087;DHT22;28708;52.224;6.924;2023-10-09T15:23:58;18.30;99.90
43087;DHT22;28708;52.224;6.924;2023-10-09T15:26:24;18.30;99.90
43087;DHT22;28708;52.224;6.924;2023-10-09T15:28:51;18.20;99.90
43087;DHT22;28708;52.224;6.924;2023-10-09T15:31:17;18.20;99.90
43087;DHT22;28708;52.224;6.924;2023-10-09T15:33:44;18.20;99.90
43087;DHT22;28708;52.224;6.924;2023-10-09T15:36:16;18.20;99.90
43087;DHT22;28708;52.224;6.924;2023-10-09T15:38:43;18.10;99.90
43087;DHT22;28708;52.224;6.924;2023-10-09T15:41:09;18.20;99.90
43087;DHT22;28708;52.224;6.924;2023-10-09T15:43:36;18.10;99.90
43087;DHT22;28708;52.224;6.924;2023-10-09T15:46:02;18.10;99.90
43087;DHT22;28708;52.224;6.924;2023-10-09T15:48:27;18.10;99.90
43087;DHT22;28708;52.224;6.924;2023-10-09T15:50:54;18.10;99.90
43087;DHT22;28708;52.224;6.924;2023-10-09T15:53:19;18.10;99.90
43087;DHT22;28708;52.224;6.924;2023-10-09T15:55:47;18.10;99.90
43087;DHT22;28708;52.224;6.924;2023-10-09T15:58:17;18.10;99.90
43087;DHT22;28708;52.224;6.924;2023-10-09T16:00:44;18.10;99.90
43087;DHT22;28708;52.224;6.924;2023-10-09T16:03:11;18.10;99.90
43087;DHT22;28708;52.224;6.924;2023-10-09T16:05:40;18.10;99.90
43087;DHT22;28708;52.224;6.924;2023-10-09T16:08:06;18.00;99.90
43087;DHT22;28708;52.224;6.924;2023-10-09T16:10:32;18.00;99.90
43087;DHT22;28708;52.224;6.924;2023-10-09T16:13:00;18.00;99.90
43087;DHT22;28708;52.224;6.924;2023-10-09T16:15:27;18.00;99.90
43087;DHT22;28708;52.224;6.924;2023-10-09T16:17:53;18.00;99.90
43087;DHT22;28708;52.224;6.924;2023-10-09T16:20:29;18.00;99.90
43087;DHT22;28708;52.224;6.924;2023-10-09T16:23:00;18.00;99.90
43087;DHT22;28708;52.224;6.924;2023-10-09T16:25:32;18.00;99.90
43087;DHT22;28708;52.224;6.924;2023-10-09T16:28:02;17.90;99.90
43087;DHT22;28708;52.224;6.924;2023-10-09T16:30:28;18.00;99.90
43087;DHT22;28708;52.224;6.924;2023-10-09T16:32:54;18.00;99.90
43087;DHT22;28708;52.224;6.924;2023-10-09T16:35:20;17.90;99.90
43087;DHT22;28708;52.224;6.924;2023-10-09T16:37:48;17.90;99.90
43087;DHT22;28708;52.224;6.924;2023-10-09T16:40:15;17.90;99.90
43087;DHT22;28708;52.224;6.924;2023-10-09T16:42:41;17.90;99.90
43087;DHT22;28708;52.224;6.924;2023-10-09T16:45:10;17.80;99.90
43087;DHT22;28708;52.224;6.924;2023-10-09T16:47:48;17.90;99.90
43087;DHT22;28708;52.224;6.924;2023-10-09T16:50:14;17.90;99.90
43087;DHT22;28708;52.224;6.924;2023-10-09T16:52:46;17.80;99.90
43087;DHT22;28708;52.224;6.924;2023-10-09T16:55:12;17.80;99.90
43087;DHT22;28708;52.224;6.924;2023-10-09T16:57:39;17.80;99.90
43087;DHT22;28708;52.224;6.924;2023-10-09T17:00:10;17.80;99.90
43087;DHT22;28708;52.224;6.924;2023-10-09T17:02:57;17.80;99.90
43087;DHT22;28708;52.224;6.924;2023-10-09T17:05:23;17.80;99.90
43087;DHT22;28708;52.224;6.924;2023-10-09T17:07:58;17.80;99.90
43087;DHT22;28708;52.224;6.924;2023-10-09T17:10:24;17.70;99.90
43087;DHT22;28708;52.224;6.924;2023-10-09T17:12:53;17.80;99.90
43087;DHT22;28708;52.224;6.924;2023-10-09T17:15:19;17.80;99.90
43087;DHT22;28708;52.224;6.924;2023-10-09T17:17:46;17.70;99.90
43087;DHT22;28708;52.224;6.924;2023-10-09T17:20:15;17.70;99.90
43087;DHT22;28708;52.224;6.924;2023-10-09T17:22:41;17.70;99.90
43087;DHT22;28708;52.224;6.924;2023-10-09T17:25:09;17.70;99.90
43087;DHT22;28708;52.224;6.924;2023-10-09T17:27:40;17.70;99.90
43087;DHT22;28708;52.224;6.924;2023-10-09T17:30:08;17.70;99.90
43087;DHT22;28708;52.224;6.924;2023-10-09T17:32:34;17.60;99.90
43087;DHT22;28708;52.224;6.924;2023-10-09T17:35:04;17.60;99.90
43087;DHT22;28708;52.224;6.924;2023-10-09T17:37:37;17.60;99.90
43087;DHT22;28708;52.224;6.924;2023-10-09T17:40:07;17.60;99.90
43087;DHT22;28708;52.224;6.924;2023-10-09T17:42:34;17.60;99.90
43087;DHT22;28708;52.224;6.924;2023-10-09T17:45:00;17.60;99.90
43087;DHT22;28708;52.224;6.924;2023-10-09T17:47:31;17.60;99.90
43087;DHT22;28708;52.224;6.924;2023-10-09T17:50:06;17.50;99.90
43087;DHT22;28708;52.224;6.924;2023-10-09T17:52:38;17.50;99.90
43087;DHT22;28708;52.224;6.924;2023-10-09T17:55:12;17.50;99.90
43087;DHT22;28708;52.224;6.924;2023-10-09T17:57:39;17.60;99.90
43087;DHT22;28708;52.224;6.924;2023-10-09T18:00:09;17.50;99.90
43087;DHT22;28708;52.224;6.924;2023-10-09T18:02:52;17.50;99.90
43087;DHT22;28708;52.224;6.924;2023-10-09T18:05:18;17.50;99.90